createdAt,value
2022-12-13T00:05:45.453Z,100.00
2022-12-13T00:15:59.423Z,100.00
2022-12-13T00:26:12.052Z,100.00
2022-12-13T00:36:15.211Z,100.00
2022-12-13T00:46:21.376Z,100.00
2022-12-13T00:56:27.496Z,100.00
2022-12-13T01:06:39.461Z,100.00
2022-12-13T01:16:41.319Z,100.00
2022-12-13T01:27:01.429Z,100.00
2022-12-13T01:37:13.096Z,100.00
2022-12-13T01:47:19.643Z,100.00
2022-12-13T01:57:23.281Z,100.00
2022-12-13T02:07:29.588Z,100.00
2022-12-13T02:17:53.164Z,100.00
2022-12-13T02:28:31.011Z,100.00
2022-12-13T02:38:41.978Z,100.00
2022-12-13T02:48:45.971Z,100.00
2022-12-13T02:58:52.722Z,100.00
2022-12-13T03:09:33.252Z,100.00
2022-12-13T03:19:35.499Z,100.00
2022-12-13T03:29:38.205Z,100.00
2022-12-13T03:39:43.914Z,100.00
2022-12-13T03:49:47.588Z,100.00
2022-12-13T03:59:56.241Z,100.00
2022-12-13T04:09:57.975Z,100.00
2022-12-13T04:20:01.972Z,100.00
2022-12-13T04:30:05.029Z,100.00
2022-12-13T04:40:10.415Z,100.00
2022-12-13T04:50:13.328Z,100.00
2022-12-13T05:00:17.511Z,100.00
2022-12-13T05:10:34.307Z,100.00
2022-12-13T05:20:41.012Z,100.00
2022-12-13T05:30:44.943Z,100.00
2022-12-13T05:40:47.556Z,100.00
2022-12-13T05:50:49.378Z,100.00
2022-12-13T06:00:53.180Z,100.00
2022-12-13T06:11:10.760Z,100.00
2022-12-13T06:21:13.794Z,100.00
2022-12-13T06:31:15.769Z,100.00
2022-12-13T06:41:18.356Z,100.00
2022-12-13T06:51:22.819Z,100.00
2022-12-13T07:01:28.265Z,100.00
2022-12-13T07:11:39.645Z,100.00
2022-12-13T07:21:41.337Z,100.00
2022-12-13T07:31:48.022Z,100.00
2022-12-13T07:41:50.881Z,100.00
2022-12-13T07:51:55.842Z,100.00
2022-12-13T08:01:57.707Z,100.00
2022-12-13T08:12:04.284Z,100.00
2022-12-13T08:22:07.160Z,100.00
2022-12-13T08:32:15.976Z,100.00
2022-12-13T08:42:20.346Z,100.00
2022-12-13T08:52:31.755Z,95.80
2022-12-13T09:02:38.457Z,82.75
2022-12-13T09:12:46.231Z,72.10
2022-12-13T09:22:48.044Z,56.43
2022-12-13T09:32:50.650Z,52.43
2022-12-13T09:43:20.429Z,47.34
2022-12-13T09:53:22.753Z,41.48
2022-12-13T10:03:27.236Z,38.03
2022-12-13T10:14:06.845Z,36.51
2022-12-13T10:24:31.394Z,32.57
2022-12-13T10:34:37.625Z,37.73
2022-12-13T10:44:42.657Z,33.72
2022-12-13T10:54:48.307Z,30.48
2022-12-13T11:05:23.362Z,31.55
2022-12-13T11:15:37.137Z,30.69
2022-12-13T11:25:43.882Z,31.29
2022-12-13T11:36:07.771Z,31.30
2022-12-13T11:46:20.222Z,29.46
2022-12-13T11:56:23.870Z,31.18
2022-12-13T12:06:44.473Z,29.19
2022-12-13T12:16:59.494Z,27.19
2022-12-13T12:27:25.342Z,37.53
2022-12-13T12:37:42.899Z,43.80
2022-12-13T12:59:10.662Z,45.82
2022-12-13T13:09:17.095Z,41.54
2022-12-13T13:19:35.537Z,40.87
2022-12-13T13:29:43.026Z,40.09
2022-12-13T13:39:59.133Z,47.68
2022-12-13T13:50:12.977Z,50.22
2022-12-13T14:00:44.387Z,46.23
2022-12-13T14:11:22.272Z,51.97
2022-12-13T14:22:00.135Z,54.68
2022-12-13T14:32:02.966Z,57.24
2022-12-13T14:42:30.445Z,63.77
2022-12-13T14:52:42.609Z,73.73
2022-12-13T15:02:51.941Z,82.11
2022-12-13T15:12:55.052Z,88.07
2022-12-13T15:23:01.148Z,98.25
2022-12-13T15:33:22.443Z,98.52
2022-12-13T15:43:46.136Z,100.00
2022-12-13T15:54:11.518Z,100.00
2022-12-13T16:04:29.523Z,100.00
2022-12-13T16:14:49.588Z,100.00
2022-12-13T16:25:01.238Z,100.00
2022-12-13T16:35:03.427Z,100.00
2022-12-13T16:45:39.986Z,100.00
2022-12-13T16:55:29.413Z,100.00
2022-12-13T17:05:33.839Z,100.00
2022-12-13T17:15:40.978Z,100.00
2022-12-13T17:25:44.469Z,100.00
2022-12-13T17:35:47.444Z,100.00
2022-12-13T17:46:02.868Z,100.00
2022-12-13T17:56:08.784Z,100.00
2022-12-13T18:06:15.063Z,100.00
2022-12-13T18:16:19.238Z,100.00
2022-12-13T18:26:23.478Z,100.00
2022-12-13T18:36:27.834Z,100.00
2022-12-13T18:46:35.518Z,100.00
2022-12-13T18:56:38.237Z,100.00
2022-12-13T19:06:51.309Z,100.00
2022-12-13T19:16:56.584Z,100.00
2022-12-13T19:27:02.604Z,100.00
2022-12-13T19:37:06.767Z,100.00
2022-12-13T19:47:12.720Z,100.00
2022-12-13T19:57:16.546Z,100.00
2022-12-13T20:07:19.459Z,100.00
2022-12-13T20:17:23.354Z,100.00
2022-12-13T20:27:28.110Z,100.00
2022-12-13T20:37:34.911Z,100.00
2022-12-13T20:47:39.043Z,100.00
2022-12-13T20:57:41.786Z,100.00
2022-12-13T21:08:04.607Z,100.00
2022-12-13T21:18:09.109Z,100.00
2022-12-13T21:28:11.460Z,100.00
2022-12-13T21:38:13.300Z,100.00
2022-12-13T21:48:15.550Z,100.00
2022-12-13T21:58:36.002Z,100.00
2022-12-13T22:08:43.937Z,100.00
2022-12-13T22:18:48.294Z,100.00
2022-12-13T22:28:51.111Z,100.00
2022-12-13T22:38:54.934Z,100.00
2022-12-13T22:48:56.901Z,100.00
2022-12-13T22:59:02.238Z,100.00
2022-12-13T23:09:10.395Z,100.00
2022-12-13T23:29:40.634Z,100.00
2022-12-13T23:39:48.376Z,100.00
2022-12-13T23:49:53.429Z,100.00
2022-12-13T23:59:56.120Z,100.00
